sensor_id;sensor_type;location;lat;lon;timestamp;P1;durP1;ratioP1;P2;durP2;ratioP2
51558;SDS011;61650;48.882;2.092;2023-02-04T00:01:28;5.27;;;4.30;;
51558;SDS011;61650;48.882;2.092;2023-02-04T00:03:54;5.80;;;4.70;;
51558;SDS011;61650;48.882;2.092;2023-02-04T00:06:19;7.10;;;4.67;;
51558;SDS011;61650;48.882;2.092;2023-02-04T00:08:45;6.70;;;3.97;;
51558;SDS011;61650;48.882;2.092;2023-02-04T00:11:10;5.17;;;4.23;;
51558;SDS011;61650;48.882;2.092;2023-02-04T00:13:36;9.93;;;5.03;;
51558;SDS011;61650;48.882;2.092;2023-02-04T00:16:01;7.60;;;4.27;;
51558;SDS011;61650;48.882;2.092;2023-02-04T00:18:27;7.60;;;4.70;;
51558;SDS011;61650;48.882;2.092;2023-02-04T00:20:53;10.83;;;4.40;;
51558;SDS011;61650;48.882;2.092;2023-02-04T00:23:19;5.23;;;4.73;;
51558;SDS011;61650;48.882;2.092;2023-02-04T00:25:45;8.10;;;4.93;;
51558;SDS011;61650;48.882;2.092;2023-02-04T00:28:10;5.20;;;3.97;;
51558;SDS011;61650;48.882;2.092;2023-02-04T00:30:36;6.67;;;4.33;;
51558;SDS011;61650;48.882;2.092;2023-02-04T00:33:02;8.13;;;4.30;;
51558;SDS011;61650;48.882;2.092;2023-02-04T00:35:27;8.73;;;4.93;;
51558;SDS011;61650;48.882;2.092;2023-02-04T00:37:53;7.30;;;4.30;;
51558;SDS011;61650;48.882;2.092;2023-02-04T00:40:19;10.50;;;4.97;;
51558;SDS011;61650;48.882;2.092;2023-02-04T00:42:44;9.77;;;5.70;;
51558;SDS011;61650;48.882;2.092;2023-02-04T00:45:10;8.87;;;5.33;;
51558;SDS011;61650;48.882;2.092;2023-02-04T00:47:37;5.90;;;4.57;;
51558;SDS011;61650;48.882;2.092;2023-02-04T00:50:02;8.53;;;5.10;;
51558;SDS011;61650;48.882;2.092;2023-02-04T00:52:28;9.47;;;5.00;;
51558;SDS011;61650;48.882;2.092;2023-02-04T00:54:54;6.00;;;4.17;;
51558;SDS011;61650;48.882;2.092;2023-02-04T00:57:20;5.13;;;4.30;;
51558;SDS011;61650;48.882;2.092;2023-02-04T00:59:45;6.00;;;3.93;;
51558;SDS011;61650;48.882;2.092;2023-02-04T01:02:11;6.87;;;4.27;;
51558;SDS011;61650;48.882;2.092;2023-02-04T01:04:36;7.50;;;4.63;;
51558;SDS011;61650;48.882;2.092;2023-02-04T01:07:02;7.20;;;4.17;;
51558;SDS011;61650;48.882;2.092;2023-02-04T01:09:28;8.00;;;5.37;;
51558;SDS011;61650;48.882;2.092;2023-02-04T01:11:53;7.50;;;5.10;;
51558;SDS011;61650;48.882;2.092;2023-02-04T01:14:19;9.13;;;5.37;;
51558;SDS011;61650;48.882;2.092;2023-02-04T01:16:44;9.40;;;5.50;;
51558;SDS011;61650;48.882;2.092;2023-02-04T01:19:10;8.33;;;5.03;;
51558;SDS011;61650;48.882;2.092;2023-02-04T01:21:36;6.70;;;4.77;;
51558;SDS011;61650;48.882;2.092;2023-02-04T01:24:02;8.57;;;5.07;;
51558;SDS011;61650;48.882;2.092;2023-02-04T01:26:27;10.27;;;5.80;;
51558;SDS011;61650;48.882;2.092;2023-02-04T01:28:53;10.30;;;6.57;;
51558;SDS011;61650;48.882;2.092;2023-02-04T01:31:18;11.13;;;6.50;;
51558;SDS011;61650;48.882;2.092;2023-02-04T01:33:44;9.53;;;6.70;;
51558;SDS011;61650;48.882;2.092;2023-02-04T01:36:10;10.27;;;6.20;;
51558;SDS011;61650;48.882;2.092;2023-02-04T01:38:36;10.07;;;6.67;;
51558;SDS011;61650;48.882;2.092;2023-02-04T01:41:01;9.80;;;6.90;;
51558;SDS011;61650;48.882;2.092;2023-02-04T01:43:28;11.10;;;7.40;;
51558;SDS011;61650;48.882;2.092;2023-02-04T01:45:55;13.33;;;8.03;;
51558;SDS011;61650;48.882;2.092;2023-02-04T01:48:20;11.63;;;6.83;;
51558;SDS011;61650;48.882;2.092;2023-02-04T01:50:48;11.47;;;8.33;;
51558;SDS011;61650;48.882;2.092;2023-02-04T01:53:17;12.97;;;7.97;;
51558;SDS011;61650;48.882;2.092;2023-02-04T01:55:48;13.17;;;8.07;;
51558;SDS011;61650;48.882;2.092;2023-02-04T01:58:14;11.67;;;7.90;;
51558;SDS011;61650;48.882;2.092;2023-02-04T02:00:40;12.53;;;8.93;;
51558;SDS011;61650;48.882;2.092;2023-02-04T02:03:06;14.60;;;8.53;;
51558;SDS011;61650;48.882;2.092;2023-02-04T02:05:42;15.03;;;8.77;;
51558;SDS011;61650;48.882;2.092;2023-02-04T02:08:10;16.13;;;8.43;;
51558;SDS011;61650;48.882;2.092;2023-02-04T02:10:38;14.00;;;8.17;;
51558;SDS011;61650;48.882;2.092;2023-02-04T02:13:07;12.57;;;7.80;;
51558;SDS011;61650;48.882;2.092;2023-02-04T02:15:35;14.07;;;7.90;;
51558;SDS011;61650;48.882;2.092;2023-02-04T02:18:00;13.47;;;7.37;;
51558;SDS011;61650;48.882;2.092;2023-02-04T02:20:27;11.03;;;7.50;;
51558;SDS011;61650;48.882;2.092;2023-02-04T02:25:50;12.33;;;7.00;;
51558;SDS011;61650;48.882;2.092;2023-02-04T02:28:17;15.73;;;7.20;;
51558;SDS011;61650;48.882;2.092;2023-02-04T02:30:44;11.40;;;8.77;;
51558;SDS011;61650;48.882;2.092;2023-02-04T02:33:12;9.73;;;6.50;;
51558;SDS011;61650;48.882;2.092;2023-02-04T02:35:41;12.50;;;7.47;;
51558;SDS011;61650;48.882;2.092;2023-02-04T02:38:08;11.00;;;6.43;;
51558;SDS011;61650;48.882;2.092;2023-02-04T02:40:35;14.03;;;7.30;;
51558;SDS011;61650;48.882;2.092;2023-02-04T02:43:01;8.60;;;6.20;;
51558;SDS011;61650;48.882;2.092;2023-02-04T02:45:27;11.00;;;6.97;;
51558;SDS011;61650;48.882;2.092;2023-02-04T02:47:55;12.10;;;6.20;;
51558;SDS011;61650;48.882;2.092;2023-02-04T02:50:25;10.73;;;6.27;;
51558;SDS011;61650;48.882;2.092;2023-02-04T02:52:52;9.87;;;6.30;;
51558;SDS011;61650;48.882;2.092;2023-02-04T02:55:19;10.30;;;6.40;;
51558;SDS011;61650;48.882;2.092;2023-02-04T02:57:47;6.77;;;5.47;;
51558;SDS011;61650;48.882;2.092;2023-02-04T03:00:19;10.77;;;5.60;;
51558;SDS011;61650;48.882;2.092;2023-02-04T03:02:57;8.70;;;5.40;;
51558;SDS011;61650;48.882;2.092;2023-02-04T03:05:42;9.97;;;6.20;;
51558;SDS011;61650;48.882;2.092;2023-02-04T03:08:11;7.93;;;5.93;;
51558;SDS011;61650;48.882;2.092;2023-02-04T03:10:39;8.37;;;6.10;;
51558;SDS011;61650;48.882;2.092;2023-02-04T03:13:06;10.03;;;5.70;;
51558;SDS011;61650;48.882;2.092;2023-02-04T03:15:31;8.50;;;5.67;;
51558;SDS011;61650;48.882;2.092;2023-02-04T03:17:58;9.73;;;5.57;;
51558;SDS011;61650;48.882;2.092;2023-02-04T03:20:26;14.17;;;6.43;;
51558;SDS011;61650;48.882;2.092;2023-02-04T03:22:53;12.50;;;6.60;;
51558;SDS011;61650;48.882;2.092;2023-02-04T03:25:21;6.53;;;5.03;;
51558;SDS011;61650;48.882;2.092;2023-02-04T03:27:50;8.43;;;5.93;;
51558;SDS011;61650;48.882;2.092;2023-02-04T03:30:18;12.13;;;6.43;;
51558;SDS011;61650;48.882;2.092;2023-02-04T03:32:44;10.87;;;6.10;;
51558;SDS011;61650;48.882;2.092;2023-02-04T03:35:10;11.70;;;6.60;;
51558;SDS011;61650;48.882;2.092;2023-02-04T03:37:36;9.77;;;6.40;;
51558;SDS011;61650;48.882;2.092;2023-02-04T03:40:02;11.80;;;6.30;;
51558;SDS011;61650;48.882;2.092;2023-02-04T03:42:28;13.87;;;6.60;;
51558;SDS011;61650;48.882;2.092;2023-02-04T03:44:54;10.90;;;6.57;;
51558;SDS011;61650;48.882;2.092;2023-02-04T03:47:19;12.27;;;7.03;;
51558;SDS011;61650;48.882;2.092;2023-02-04T03:49:45;12.80;;;7.90;;
51558;SDS011;61650;48.882;2.092;2023-02-04T03:52:10;10.87;;;6.63;;
51558;SDS011;61650;48.882;2.092;2023-02-04T03:54:36;9.90;;;7.27;;
51558;SDS011;61650;48.882;2.092;2023-02-04T03:57:01;13.23;;;7.63;;
51558;SDS011;61650;48.882;2.092;2023-02-04T03:59:27;12.93;;;7.50;;
51558;SDS011;61650;48.882;2.092;2023-02-04T04:01:53;12.80;;;6.23;;
51558;SDS011;61650;48.882;2.092;2023-02-04T04:04:18;8.10;;;6.10;;
51558;SDS011;61650;48.882;2.092;2023-02-04T04:06:44;13.00;;;6.67;;
51558;SDS011;61650;48.882;2.092;2023-02-04T04:09:09;11.20;;;6.90;;
51558;SDS011;61650;48.882;2.092;2023-02-04T04:11:35;13.50;;;7.07;;
51558;SDS011;61650;48.882;2.092;2023-02-04T04:14:01;11.30;;;6.70;;
51558;SDS011;61650;48.882;2.092;2023-02-04T04:16:26;10.60;;;7.20;;
51558;SDS011;61650;48.882;2.092;2023-02-04T04:18:52;13.03;;;6.53;;
51558;SDS011;61650;48.882;2.092;2023-02-04T04:21:19;15.07;;;7.40;;
51558;SDS011;61650;48.882;2.092;2023-02-04T04:23:44;9.73;;;7.20;;
51558;SDS011;61650;48.882;2.092;2023-02-04T04:26:10;10.83;;;5.87;;
51558;SDS011;61650;48.882;2.092;2023-02-04T04:28:35;11.83;;;6.90;;
51558;SDS011;61650;48.882;2.092;2023-02-04T04:31:01;8.80;;;6.70;;
51558;SDS011;61650;48.882;2.092;2023-02-04T04:33:27;15.93;;;6.47;;
51558;SDS011;61650;48.882;2.092;2023-02-04T04:35:52;11.80;;;6.17;;
51558;SDS011;61650;48.882;2.092;2023-02-04T04:38:18;11.17;;;6.33;;
51558;SDS011;61650;48.882;2.092;2023-02-04T04:40:43;12.40;;;6.67;;
51558;SDS011;61650;48.882;2.092;2023-02-04T04:43:09;10.83;;;6.67;;
51558;SDS011;61650;48.882;2.092;2023-02-04T04:45:35;12.43;;;7.30;;
51558;SDS011;61650;48.882;2.092;2023-02-04T04:48:00;13.40;;;6.47;;
51558;SDS011;61650;48.882;2.092;2023-02-04T04:50:26;11.93;;;6.37;;
51558;SDS011;61650;48.882;2.092;2023-02-04T04:52:51;12.57;;;6.30;;
51558;SDS011;61650;48.882;2.092;2023-02-04T04:55:17;12.30;;;6.93;;
51558;SDS011;61650;48.882;2.092;2023-02-04T04:57:42;11.23;;;6.73;;
51558;SDS011;61650;48.882;2.092;2023-02-04T05:00:08;12.87;;;7.43;;
51558;SDS011;61650;48.882;2.092;2023-02-04T05:02:40;15.18;;;6.65;;
51558;SDS011;61650;48.882;2.092;2023-02-04T05:05:05;12.70;;;7.00;;
51558;SDS011;61650;48.882;2.092;2023-02-04T05:07:31;12.67;;;7.10;;
51558;SDS011;61650;48.882;2.092;2023-02-04T05:09:57;10.97;;;6.73;;
51558;SDS011;61650;48.882;2.092;2023-02-04T05:12:22;13.87;;;6.37;;
51558;SDS011;61650;48.882;2.092;2023-02-04T05:14:48;13.50;;;6.83;;
51558;SDS011;61650;48.882;2.092;2023-02-04T05:17:13;11.80;;;6.90;;
51558;SDS011;61650;48.882;2.092;2023-02-04T05:19:39;13.67;;;6.13;;
51558;SDS011;61650;48.882;2.092;2023-02-04T05:22:04;10.53;;;6.60;;
51558;SDS011;61650;48.882;2.092;2023-02-04T05:24:30;8.03;;;6.73;;
51558;SDS011;61650;48.882;2.092;2023-02-04T05:26:56;9.10;;;6.17;;
51558;SDS011;61650;48.882;2.092;2023-02-04T05:29:21;10.70;;;5.80;;
51558;SDS011;61650;48.882;2.092;2023-02-04T05:31:47;12.53;;;6.30;;
51558;SDS011;61650;48.882;2.092;2023-02-04T05:34:12;15.60;;;7.10;;
51558;SDS011;61650;48.882;2.092;2023-02-04T05:36:38;11.90;;;6.23;;
51558;SDS011;61650;48.882;2.092;2023-02-04T05:39:03;12.33;;;6.63;;
51558;SDS011;61650;48.882;2.092;2023-02-04T05:41:29;9.40;;;5.80;;
51558;SDS011;61650;48.882;2.092;2023-02-04T05:43:55;11.63;;;6.03;;
51558;SDS011;61650;48.882;2.092;2023-02-04T05:46:20;10.80;;;6.30;;
51558;SDS011;61650;48.882;2.092;2023-02-04T05:48:46;10.80;;;6.30;;
51558;SDS011;61650;48.882;2.092;2023-02-04T05:51:14;8.17;;;5.80;;
51558;SDS011;61650;48.882;2.092;2023-02-04T05:53:40;11.70;;;7.70;;
51558;SDS011;61650;48.882;2.092;2023-02-04T05:56:05;13.63;;;6.87;;
51558;SDS011;61650;48.882;2.092;2023-02-04T05:58:31;10.27;;;6.90;;
51558;SDS011;61650;48.882;2.092;2023-02-04T06:00:59;12.97;;;6.93;;
51558;SDS011;61650;48.882;2.092;2023-02-04T06:03:26;6.83;;;5.50;;
51558;SDS011;61650;48.882;2.092;2023-02-04T06:05:52;7.70;;;6.57;;
51558;SDS011;61650;48.882;2.092;2023-02-04T06:08:18;12.60;;;6.77;;
51558;SDS011;61650;48.882;2.092;2023-02-04T06:10:43;10.57;;;6.27;;
51558;SDS011;61650;48.882;2.092;2023-02-04T06:13:09;7.40;;;5.10;;
51558;SDS011;61650;48.882;2.092;2023-02-04T06:15:35;10.53;;;6.23;;
51558;SDS011;61650;48.882;2.092;2023-02-04T06:18:01;9.80;;;5.10;;
51558;SDS011;61650;48.882;2.092;2023-02-04T06:20:26;11.13;;;6.03;;
51558;SDS011;61650;48.882;2.092;2023-02-04T06:22:52;13.23;;;6.10;;
51558;SDS011;61650;48.882;2.092;2023-02-04T06:25:18;10.93;;;5.40;;
51558;SDS011;61650;48.882;2.092;2023-02-04T06:27:44;12.93;;;6.30;;
51558;SDS011;61650;48.882;2.092;2023-02-04T06:30:11;8.10;;;6.10;;
51558;SDS011;61650;48.882;2.092;2023-02-04T06:32:37;11.60;;;6.43;;
51558;SDS011;61650;48.882;2.092;2023-02-04T06:35:03;13.67;;;6.63;;
51558;SDS011;61650;48.882;2.092;2023-02-04T06:37:29;13.90;;;6.47;;
51558;SDS011;61650;48.882;2.092;2023-02-04T06:39:55;12.83;;;6.60;;
51558;SDS011;61650;48.882;2.092;2023-02-04T06:42:21;12.00;;;6.63;;
51558;SDS011;61650;48.882;2.092;2023-02-04T06:44:50;11.23;;;7.00;;
51558;SDS011;61650;48.882;2.092;2023-02-04T06:47:16;12.27;;;6.50;;
51558;SDS011;61650;48.882;2.092;2023-02-04T06:49:42;15.53;;;7.20;;
51558;SDS011;61650;48.882;2.092;2023-02-04T06:52:07;9.40;;;7.40;;
51558;SDS011;61650;48.882;2.092;2023-02-04T06:54:33;12.37;;;6.87;;
51558;SDS011;61650;48.882;2.092;2023-02-04T06:56:59;11.30;;;6.27;;
51558;SDS011;61650;48.882;2.092;2023-02-04T06:59:31;10.60;;;6.97;;
51558;SDS011;61650;48.882;2.092;2023-02-04T07:02:01;9.77;;;6.27;;
51558;SDS011;61650;48.882;2.092;2023-02-04T07:04:26;9.03;;;5.90;;
51558;SDS011;61650;48.882;2.092;2023-02-04T07:06:52;11.83;;;7.70;;
51558;SDS011;61650;48.882;2.092;2023-02-04T07:09:17;12.03;;;6.80;;
51558;SDS011;61650;48.882;2.092;2023-02-04T07:11:43;11.73;;;7.13;;
51558;SDS011;61650;48.882;2.092;2023-02-04T07:14:08;13.67;;;6.80;;
51558;SDS011;61650;48.882;2.092;2023-02-04T07:16:34;13.80;;;7.17;;
51558;SDS011;61650;48.882;2.092;2023-02-04T07:19:00;11.23;;;6.60;;
51558;SDS011;61650;48.882;2.092;2023-02-04T07:21:26;11.87;;;6.87;;
51558;SDS011;61650;48.882;2.092;2023-02-04T07:23:52;12.93;;;8.00;;
51558;SDS011;61650;48.882;2.092;2023-02-04T07:26:17;12.70;;;8.23;;
51558;SDS011;61650;48.882;2.092;2023-02-04T07:28:43;13.27;;;7.67;;
51558;SDS011;61650;48.882;2.092;2023-02-04T07:31:09;12.60;;;7.07;;
51558;SDS011;61650;48.882;2.092;2023-02-04T07:33:34;16.07;;;7.27;;
51558;SDS011;61650;48.882;2.092;2023-02-04T07:36:00;12.03;;;6.43;;
51558;SDS011;61650;48.882;2.092;2023-02-04T07:38:26;11.20;;;6.93;;
51558;SDS011;61650;48.882;2.092;2023-02-04T07:40:52;11.27;;;6.90;;
51558;SDS011;61650;48.882;2.092;2023-02-04T07:43:17;12.23;;;6.83;;
51558;SDS011;61650;48.882;2.092;2023-02-04T07:45:43;16.93;;;7.47;;
51558;SDS011;61650;48.882;2.092;2023-02-04T07:48:09;11.33;;;6.90;;
51558;SDS011;61650;48.882;2.092;2023-02-04T07:50:35;11.27;;;6.77;;
51558;SDS011;61650;48.882;2.092;2023-02-04T07:53:00;12.30;;;6.63;;
51558;SDS011;61650;48.882;2.092;2023-02-04T07:55:26;13.93;;;7.20;;
51558;SDS011;61650;48.882;2.092;2023-02-04T07:57:52;10.87;;;5.90;;
51558;SDS011;61650;48.882;2.092;2023-02-04T08:00:18;10.53;;;6.20;;
51558;SDS011;61650;48.882;2.092;2023-02-04T08:02:44;11.80;;;6.87;;
51558;SDS011;61650;48.882;2.092;2023-02-04T08:05:09;9.50;;;6.50;;
51558;SDS011;61650;48.882;2.092;2023-02-04T08:07:35;11.57;;;6.77;;
51558;SDS011;61650;48.882;2.092;2023-02-04T08:10:01;13.10;;;7.00;;
51558;SDS011;61650;48.882;2.092;2023-02-04T08:12:28;10.97;;;6.00;;
51558;SDS011;61650;48.882;2.092;2023-02-04T08:14:54;9.47;;;6.40;;
51558;SDS011;61650;48.882;2.092;2023-02-04T08:17:19;10.20;;;6.50;;
51558;SDS011;61650;48.882;2.092;2023-02-04T08:19:45;11.20;;;6.50;;
51558;SDS011;61650;48.882;2.092;2023-02-04T08:22:11;15.63;;;7.67;;
51558;SDS011;61650;48.882;2.092;2023-02-04T08:24:37;12.00;;;7.30;;
51558;SDS011;61650;48.882;2.092;2023-02-04T08:27:02;10.20;;;6.63;;
51558;SDS011;61650;48.882;2.092;2023-02-04T08:29:28;9.93;;;7.13;;
51558;SDS011;61650;48.882;2.092;2023-02-04T08:31:54;11.23;;;7.30;;
51558;SDS011;61650;48.882;2.092;2023-02-04T08:34:19;11.53;;;6.10;;
51558;SDS011;61650;48.882;2.092;2023-02-04T08:36:45;9.80;;;6.60;;
51558;SDS011;61650;48.882;2.092;2023-02-04T08:39:10;10.97;;;6.70;;
51558;SDS011;61650;48.882;2.092;2023-02-04T08:41:36;14.00;;;6.73;;
51558;SDS011;61650;48.882;2.092;2023-02-04T08:44:02;9.43;;;6.90;;
51558;SDS011;61650;48.882;2.092;2023-02-04T08:46:28;8.60;;;6.43;;
51558;SDS011;61650;48.882;2.092;2023-02-04T08:48:53;11.00;;;6.47;;
51558;SDS011;61650;48.882;2.092;2023-02-04T08:51:19;11.13;;;6.50;;
51558;SDS011;61650;48.882;2.092;2023-02-04T08:53:45;12.00;;;6.00;;
51558;SDS011;61650;48.882;2.092;2023-02-04T08:56:12;10.07;;;5.43;;
51558;SDS011;61650;48.882;2.092;2023-02-04T08:58:42;11.60;;;6.00;;
51558;SDS011;61650;48.882;2.092;2023-02-04T09:01:08;7.30;;;4.17;;
51558;SDS011;61650;48.882;2.092;2023-02-04T09:03:35;9.10;;;5.30;;
51558;SDS011;61650;48.882;2.092;2023-02-04T09:06:01;9.80;;;5.90;;
51558;SDS011;61650;48.882;2.092;2023-02-04T09:08:27;7.47;;;5.00;;
51558;SDS011;61650;48.882;2.092;2023-02-04T09:10:53;7.00;;;4.70;;
51558;SDS011;61650;48.882;2.092;2023-02-04T09:13:18;7.97;;;4.93;;
51558;SDS011;61650;48.882;2.092;2023-02-04T09:15:44;5.80;;;4.43;;
51558;SDS011;61650;48.882;2.092;2023-02-04T09:18:09;6.10;;;3.90;;
51558;SDS011;61650;48.882;2.092;2023-02-04T09:20:40;7.30;;;4.23;;
51558;SDS011;61650;48.882;2.092;2023-02-04T09:23:06;6.80;;;4.87;;
51558;SDS011;61650;48.882;2.092;2023-02-04T09:25:34;7.60;;;4.87;;
51558;SDS011;61650;48.882;2.092;2023-02-04T09:28:00;8.40;;;4.50;;
51558;SDS011;61650;48.882;2.092;2023-02-04T09:30:25;6.20;;;4.40;;
51558;SDS011;61650;48.882;2.092;2023-02-04T09:32:51;8.13;;;5.17;;
51558;SDS011;61650;48.882;2.092;2023-02-04T09:35:17;8.33;;;4.50;;
51558;SDS011;61650;48.882;2.092;2023-02-04T09:37:42;6.33;;;3.93;;
51558;SDS011;61650;48.882;2.092;2023-02-04T09:40:09;6.63;;;3.30;;
51558;SDS011;61650;48.882;2.092;2023-02-04T09:42:39;4.27;;;2.97;;
51558;SDS011;61650;48.882;2.092;2023-02-04T09:45:04;4.17;;;3.20;;
51558;SDS011;61650;48.882;2.092;2023-02-04T09:47:31;5.00;;;3.20;;
51558;SDS011;61650;48.882;2.092;2023-02-04T09:49:56;6.73;;;3.50;;
51558;SDS011;61650;48.882;2.092;2023-02-04T09:52:22;3.87;;;3.20;;
51558;SDS011;61650;48.882;2.092;2023-02-04T09:54:49;6.70;;;3.57;;
51558;SDS011;61650;48.882;2.092;2023-02-04T09:57:16;6.60;;;3.97;;
51558;SDS011;61650;48.882;2.092;2023-02-04T09:59:43;5.17;;;3.77;;
51558;SDS011;61650;48.882;2.092;2023-02-04T10:02:13;6.90;;;4.07;;
51558;SDS011;61650;48.882;2.092;2023-02-04T10:04:49;6.03;;;4.80;;
51558;SDS011;61650;48.882;2.092;2023-02-04T10:07:17;7.10;;;4.87;;
51558;SDS011;61650;48.882;2.092;2023-02-04T10:09:46;5.87;;;4.57;;
51558;SDS011;61650;48.882;2.092;2023-02-04T10:12:13;6.13;;;4.23;;
51558;SDS011;61650;48.882;2.092;2023-02-04T10:14:39;6.80;;;4.43;;
51558;SDS011;61650;48.882;2.092;2023-02-04T10:17:04;11.33;;;4.93;;
51558;SDS011;61650;48.882;2.092;2023-02-04T10:19:32;7.40;;;5.20;;
51558;SDS011;61650;48.882;2.092;2023-02-04T10:21:58;8.30;;;5.23;;
51558;SDS011;61650;48.882;2.092;2023-02-04T10:24:24;7.70;;;5.20;;
51558;SDS011;61650;48.882;2.092;2023-02-04T10:26:52;8.47;;;5.40;;
51558;SDS011;61650;48.882;2.092;2023-02-04T10:29:20;10.37;;;6.17;;
51558;SDS011;61650;48.882;2.092;2023-02-04T10:31:49;10.27;;;6.30;;
51558;SDS011;61650;48.882;2.092;2023-02-04T10:34:20;7.00;;;5.37;;
51558;SDS011;61650;48.882;2.092;2023-02-04T10:36:57;8.13;;;5.37;;
51558;SDS011;61650;48.882;2.092;2023-02-04T10:39:23;9.50;;;5.30;;
51558;SDS011;61650;48.882;2.092;2023-02-04T10:41:52;8.33;;;5.47;;
51558;SDS011;61650;48.882;2.092;2023-02-04T10:44:19;9.70;;;5.43;;
51558;SDS011;61650;48.882;2.092;2023-02-04T10:46:57;9.20;;;6.20;;
51558;SDS011;61650;48.882;2.092;2023-02-04T10:49:24;7.40;;;5.30;;
51558;SDS011;61650;48.882;2.092;2023-02-04T10:51:50;9.27;;;6.70;;
51558;SDS011;61650;48.882;2.092;2023-02-04T10:54:18;11.80;;;6.10;;
51558;SDS011;61650;48.882;2.092;2023-02-04T10:59:29;8.77;;;6.70;;
51558;SDS011;61650;48.882;2.092;2023-02-04T11:01:55;8.40;;;6.30;;
51558;SDS011;61650;48.882;2.092;2023-02-04T11:04:23;8.80;;;6.03;;
51558;SDS011;61650;48.882;2.092;2023-02-04T11:06:50;9.32;;;6.20;;
51558;SDS011;61650;48.882;2.092;2023-02-04T11:09:16;12.50;;;7.00;;
51558;SDS011;61650;48.882;2.092;2023-02-04T11:11:46;13.57;;;9.60;;
51558;SDS011;61650;48.882;2.092;2023-02-04T11:14:21;9.23;;;7.43;;
51558;SDS011;61650;48.882;2.092;2023-02-04T11:16:52;12.03;;;7.63;;
51558;SDS011;61650;48.882;2.092;2023-02-04T11:19:31;10.30;;;7.40;;
51558;SDS011;61650;48.882;2.092;2023-02-04T11:22:05;11.90;;;6.70;;
51558;SDS011;61650;48.882;2.092;2023-02-04T11:24:45;12.50;;;7.97;;
51558;SDS011;61650;48.882;2.092;2023-02-04T11:27:21;12.60;;;8.80;;
51558;SDS011;61650;48.882;2.092;2023-02-04T11:30:07;11.67;;;8.20;;
51558;SDS011;61650;48.882;2.092;2023-02-04T11:32:54;14.77;;;8.57;;
51558;SDS011;61650;48.882;2.092;2023-02-04T11:35:28;16.13;;;8.90;;
51558;SDS011;61650;48.882;2.092;2023-02-04T11:37:54;14.27;;;9.77;;
51558;SDS011;61650;48.882;2.092;2023-02-04T11:40:33;14.38;;;9.95;;
51558;SDS011;61650;48.882;2.092;2023-02-04T11:45:47;14.00;;;9.20;;
51558;SDS011;61650;48.882;2.092;2023-02-04T11:48:14;14.43;;;9.47;;
51558;SDS011;61650;48.882;2.092;2023-02-04T11:50:42;15.00;;;10.27;;
51558;SDS011;61650;48.882;2.092;2023-02-04T11:53:18;12.70;;;8.80;;
51558;SDS011;61650;48.882;2.092;2023-02-04T11:55:47;15.77;;;8.60;;
51558;SDS011;61650;48.882;2.092;2023-02-04T11:58:14;14.07;;;9.27;;
51558;SDS011;61650;48.882;2.092;2023-02-04T12:00:42;15.50;;;9.73;;
51558;SDS011;61650;48.882;2.092;2023-02-04T12:03:20;15.40;;;9.97;;
51558;SDS011;61650;48.882;2.092;2023-02-04T12:05:48;14.17;;;9.53;;
51558;SDS011;61650;48.882;2.092;2023-02-04T12:08:24;12.83;;;9.33;;
51558;SDS011;61650;48.882;2.092;2023-02-04T12:11:23;13.03;;;8.70;;
51558;SDS011;61650;48.882;2.092;2023-02-04T12:13:54;16.77;;;9.93;;
51558;SDS011;61650;48.882;2.092;2023-02-04T12:16:21;14.50;;;9.57;;
51558;SDS011;61650;48.882;2.092;2023-02-04T12:18:47;13.53;;;9.77;;
51558;SDS011;61650;48.882;2.092;2023-02-04T12:21:13;13.63;;;10.13;;
51558;SDS011;61650;48.882;2.092;2023-02-04T12:23:39;14.30;;;9.90;;
51558;SDS011;61650;48.882;2.092;2023-02-04T12:26:06;13.87;;;9.70;;
51558;SDS011;61650;48.882;2.092;2023-02-04T12:28:32;17.00;;;10.00;;
51558;SDS011;61650;48.882;2.092;2023-02-04T12:30:58;17.23;;;10.27;;
51558;SDS011;61650;48.882;2.092;2023-02-04T12:33:23;14.67;;;9.97;;
51558;SDS011;61650;48.882;2.092;2023-02-04T12:35:49;13.70;;;9.30;;
51558;SDS011;61650;48.882;2.092;2023-02-04T12:38:15;15.90;;;10.50;;
51558;SDS011;61650;48.882;2.092;2023-02-04T12:40:41;13.50;;;10.20;;
51558;SDS011;61650;48.882;2.092;2023-02-04T12:43:06;17.73;;;9.80;;
51558;SDS011;61650;48.882;2.092;2023-02-04T12:45:32;13.03;;;9.10;;
51558;SDS011;61650;48.882;2.092;2023-02-04T12:47:58;12.33;;;9.17;;
51558;SDS011;61650;48.882;2.092;2023-02-04T12:50:24;12.90;;;8.50;;
51558;SDS011;61650;48.882;2.092;2023-02-04T12:52:57;12.97;;;9.10;;
51558;SDS011;61650;48.882;2.092;2023-02-04T12:55:24;13.90;;;10.00;;
51558;SDS011;61650;48.882;2.092;2023-02-04T12:57:50;12.63;;;8.77;;
51558;SDS011;61650;48.882;2.092;2023-02-04T13:00:17;11.97;;;8.63;;
51558;SDS011;61650;48.882;2.092;2023-02-04T13:02:44;10.90;;;7.87;;
51558;SDS011;61650;48.882;2.092;2023-02-04T13:05:10;12.10;;;8.10;;
51558;SDS011;61650;48.882;2.092;2023-02-04T13:07:37;10.43;;;7.03;;
51558;SDS011;61650;48.882;2.092;2023-02-04T13:10:04;10.00;;;7.60;;
51558;SDS011;61650;48.882;2.092;2023-02-04T13:12:30;9.53;;;7.20;;
51558;SDS011;61650;48.882;2.092;2023-02-04T13:14:56;13.23;;;9.23;;
51558;SDS011;61650;48.882;2.092;2023-02-04T13:17:21;12.20;;;8.97;;
51558;SDS011;61650;48.882;2.092;2023-02-04T13:19:47;12.30;;;9.20;;
51558;SDS011;61650;48.882;2.092;2023-02-04T13:22:13;12.83;;;8.20;;
51558;SDS011;61650;48.882;2.092;2023-02-04T13:24:38;12.53;;;8.20;;
51558;SDS011;61650;48.882;2.092;2023-02-04T13:27:04;10.43;;;7.00;;
51558;SDS011;61650;48.882;2.092;2023-02-04T13:29:29;9.57;;;7.57;;
51558;SDS011;61650;48.882;2.092;2023-02-04T13:31:55;9.50;;;6.37;;
51558;SDS011;61650;48.882;2.092;2023-02-04T13:34:21;7.53;;;5.80;;
51558;SDS011;61650;48.882;2.092;2023-02-04T13:36:46;11.47;;;6.10;;
51558;SDS011;61650;48.882;2.092;2023-02-04T13:39:12;10.00;;;6.80;;
51558;SDS011;61650;48.882;2.092;2023-02-04T13:41:38;8.67;;;6.70;;
51558;SDS011;61650;48.882;2.092;2023-02-04T13:44:04;10.03;;;6.80;;
51558;SDS011;61650;48.882;2.092;2023-02-04T13:46:30;9.23;;;5.73;;
51558;SDS011;61650;48.882;2.092;2023-02-04T13:48:56;7.33;;;5.90;;
51558;SDS011;61650;48.882;2.092;2023-02-04T13:51:21;6.37;;;5.67;;
51558;SDS011;61650;48.882;2.092;2023-02-04T13:53:47;8.63;;;6.30;;
51558;SDS011;61650;48.882;2.092;2023-02-04T13:56:12;8.63;;;6.73;;
51558;SDS011;61650;48.882;2.092;2023-02-04T13:58:38;8.50;;;6.33;;
51558;SDS011;61650;48.882;2.092;2023-02-04T14:01:08;9.10;;;6.33;;
51558;SDS011;61650;48.882;2.092;2023-02-04T14:03:34;9.47;;;5.87;;
51558;SDS011;61650;48.882;2.092;2023-02-04T14:05:59;9.77;;;5.60;;
51558;SDS011;61650;48.882;2.092;2023-02-04T14:08:25;9.17;;;6.50;;
51558;SDS011;61650;48.882;2.092;2023-02-04T14:10:51;7.70;;;5.30;;
51558;SDS011;61650;48.882;2.092;2023-02-04T14:13:16;6.27;;;5.63;;
51558;SDS011;61650;48.882;2.092;2023-02-04T14:15:42;7.70;;;5.33;;
51558;SDS011;61650;48.882;2.092;2023-02-04T14:18:08;6.13;;;4.20;;
51558;SDS011;61650;48.882;2.092;2023-02-04T14:20:34;6.40;;;4.50;;
51558;SDS011;61650;48.882;2.092;2023-02-04T14:23:00;7.20;;;4.70;;
51558;SDS011;61650;48.882;2.092;2023-02-04T14:25:26;10.70;;;6.00;;
51558;SDS011;61650;48.882;2.092;2023-02-04T14:27:52;6.90;;;4.87;;
51558;SDS011;61650;48.882;2.092;2023-02-04T14:30:21;5.00;;;4.13;;
51558;SDS011;61650;48.882;2.092;2023-02-04T14:32:48;5.20;;;4.23;;
51558;SDS011;61650;48.882;2.092;2023-02-04T14:35:13;6.40;;;4.50;;
51558;SDS011;61650;48.882;2.092;2023-02-04T14:37:39;5.23;;;4.73;;
51558;SDS011;61650;48.882;2.092;2023-02-04T14:40:05;5.90;;;4.23;;
51558;SDS011;61650;48.882;2.092;2023-02-04T14:42:32;5.57;;;4.23;;
51558;SDS011;61650;48.882;2.092;2023-02-04T14:44:58;9.43;;;3.97;;
51558;SDS011;61650;48.882;2.092;2023-02-04T14:47:23;5.00;;;3.40;;